| Date | Time | Temp. (oF) | Dew Point (oF) | Rel. Hum. (%) | Press. (in.) | Wind Dir. (deg.) | Wind Speed (mph) | Hourly Rainfall (i n.) |
|
|---|---|---|---|---|---|---|---|---|---|
| 1 | 07/08 | 24:00 | 72 | 58 | 62 | 30.11 | 290 | 0 | 0.00 |
| 2 | 07/07 | 23:00 | 74 | 57 | 56 | 30.10 | 290 | 1 | 0.00 |
| 3 | 07/07 | 22:00 | 77 | 55 | 47 | 30.05 | 290 | 0 | 0.00 |
| 4 | 07/07 | 21:00 | 80 | 55 | 43 | 30.04 | 330 | 1 | 0.00 |
| 5 | 07/07 | 20:00 | 83 | 53 | 37 | 30.02 | 330 | 1 | 0.00 |
| 6 | 07/07 | 19:00 | 86 | 55 | 36 | 30.03 | 310 | 4 | 0.00 |
| 7 | 07/07 | 18:00 | 89 | 54 | 32 | 30.06 | 270 | 9 | 0.00 |
| 8 | 07/07 | 17:00 | 89 | 54 | 31 | 30.07 | 270 | 2 | 0.00 |
| 9 | 07/07 | 16:00 | 90 | 53 | 30 | 30.06 | 270 | 4 | 0.00 |
| 10 | 07/07 | 15:00 | 91 | 54 | 30 | 30.07 | 360 | 6 | 0.00 |
| 11 | 07/07 | 14:00 | 92 | 53 | 28 | 30.07 | 260 | 9 | 0.00 |
| 12 | 07/07 | 13:00 | 91 | 55 | 31 | 30.07 | 270 | 2 | 0.00 |
| 13 | 07/07 | 12:00 | 90 | 56 | 33 | 30.09 | 310 | 2 | 0.00 |
| 14 | 07/07 | 11:00 | 87 | 60 | 41 | 30.10 | 290 | 6 | 0.00 |
| 15 | 07/07 | 10:00 | 79 | 58 | 49 | 30.09 | 40 | 4 | 0.00 |
| 16 | 07/07 | 09:00 | 77 | 63 | 64 | 30.09 | 340 | 7 | 0.00 |
| 17 | 07/07 | 08:00 | 75 | 65 | 73 | 30.07 | 10 | 4 | 0.00 |
| 18 | 07/07 | 07:00 | 74 | 65 | 74 | 30.04 | 10 | 1 | 0.00 |
| 19 | 07/07 | 06:00 | 74 | 63 | 71 | 30.08 | 10 | 1 | 0.00 |
| 20 | 07/07 | 05:00 | 75 | 63 | 68 | 30.03 | 10 | 0 | 0.00 |
| 21 | 07/07 | 04:00 | 77 | 64 | 66 | 29.98 | 10 | 0 | 0.00 |
| 22 | 07/07 | 03:00 | 79 | 65 | 63 | 29.98 | 10 | 0 | 0.00 |
| 23 | 07/07 | 02:00 | 80 | 66 | 63 | 29.98 | 350 | 2 | 0.00 |
| 24 | 07/07 | 01:00 | 81 | 67 | 64 | 29.98 | 270 | 1 | 0.00 |